Time;durP1;ratioP1;P1;durP2;ratioP2;P2;SDS_P1;SDS_P2;PMS_P1;PMS_P2;Temp;Humidity;BMP_temperature;BMP_pressure;BME280_temperature;BME280_humidity;BME280_pressure;Samples;Min_cycle;Max_cycle;Signal;HPM_P1;HPM_P2
2022/08/08 00:00:11;;;;;;;10.25;4.03;;;15.60;84.00;;;;;;5076339;28;20059;-79
2022/08/08 00:03:24;;;;;;;7.63;3.65;;;15.50;83.90;;;;;;5074862;28;20044;-79
2022/08/08 00:06:02;;;;;;;7.60;3.45;;;15.50;84.80;;;;;;5076486;28;20060;-79
2022/08/08 00:08:51;;;;;;;7.45;3.63;;;15.50;84.10;;;;;;5075035;28;20052;-80
2022/08/08 00:11:33;;;;;;;11.43;4.00;;;15.40;85.30;;;;;;5041902;28;20391;-78
2022/08/08 00:14:57;;;;;;;8.35;4.22;;;15.40;85.00;;;;;;5074877;28;20052;-79
2022/08/08 00:17:52;;;;;;;8.35;4.10;;;15.30;85.60;;;;;;5058305;28;20467;-79
2022/08/08 00:20:40;;;;;;;7.53;4.10;;;15.40;85.30;;;;;;5058584;28;20045;-79
2022/08/08 00:23:37;;;;;;;8.50;4.55;;;15.30;85.10;;;;;;5056856;28;20067;-79
2022/08/08 00:26:29;;;;;;;14.20;4.50;;;15.10;86.30;;;;;;5073981;28;20052;-79
2022/08/08 00:29:21;;;;;;;8.30;4.38;;;15.20;85.70;;;;;;5057017;28;20041;-79
2022/08/08 00:32:44;;;;;;;8.70;4.38;;;15.30;86.20;;;;;;5057867;28;20044;-79
2022/08/08 00:35:47;;;;;;;9.63;4.60;;;15.20;86.40;;;;;;5048556;28;20063;-79
2022/08/08 00:38:30;;;;;;;8.68;4.60;;;15.10;86.30;;;;;;5075630;28;20052;-79
2022/08/08 00:41:54;;;;;;;9.38;4.10;;;15.10;85.90;;;;;;5074078;28;20486;-78
2022/08/08 00:45:28;;;;;;;9.80;4.20;;;15.00;86.90;;;;;;5060365;28;20044;-79
2022/08/08 00:48:39;;;;;;;10.20;4.43;;;14.90;87.10;;;;;;5074390;28;20056;-80
2022/08/08 00:51:13;;;;;;;11.63;4.32;;;14.80;87.60;;;;;;5040844;28;20041;-79
2022/08/08 00:54:19;;;;;;;10.18;4.30;;;14.80;87.00;;;;;;5075770;28;20044;-79
2022/08/08 00:57:22;;;;;;;10.68;4.47;;;14.70;88.40;;;;;;5057782;28;20055;-79
2022/08/08 01:00:20;;;;;;;11.10;4.47;;;14.70;88.80;;;;;;5057034;28;20497;-80
2022/08/08 01:03:13;;;;;;;9.30;4.55;;;14.60;88.70;;;;;;5040869;28;20501;-79
2022/08/08 01:06:39;;;;;;;13.75;4.30;;;14.60;89.20;;;;;;5057254;28;20470;-78
2022/08/08 01:09:39;;;;;;;12.63;4.68;;;14.50;89.60;;;;;;5056371;28;20370;-78
2022/08/08 01:12:24;;;;;;;8.77;4.60;;;14.50;89.50;;;;;;5057352;28;20045;-79
2022/08/08 01:15:29;;;;;;;7.97;4.40;;;14.50;89.20;;;;;;5056287;28;20467;-79
2022/08/08 01:18:50;;;;;;;9.05;4.55;;;14.50;89.20;;;;;;5040603;28;20064;-78
2022/08/08 01:22:06;;;;;;;8.32;4.10;;;14.40;90.00;;;;;;5020726;28;20056;-78
2022/08/08 01:25:08;;;;;;;8.75;4.50;;;14.40;90.10;;;;;;5056956;28;20048;-78
2022/08/08 01:28:10;;;;;;;9.82;4.25;;;14.40;89.90;;;;;;5056080;28;20044;-78
2022/08/08 01:31:18;;;;;;;8.52;4.70;;;14.30;90.30;;;;;;5025072;28;20045;-78
2022/08/08 01:34:08;;;;;;;7.60;4.07;;;14.30;90.30;;;;;;5057325;28;20048;-79
2022/08/08 01:36:42;;;;;;;9.48;4.78;;;14.20;90.10;;;;;;5055986;28;20037;-78
2022/08/08 01:39:51;;;;;;;10.82;4.95;;;14.20;90.30;;;;;;5057186;28;20052;-78
2022/08/08 01:42:45;;;;;;;10.20;5.18;;;14.20;90.60;;;;;;5056294;28;20459;-78
2022/08/08 01:45:20;;;;;;;11.48;4.95;;;14.10;90.70;;;;;;5057450;28;20367;-78
2022/08/08 01:48:10;;;;;;;10.95;5.10;;;14.10;90.60;;;;;;5077491;28;20048;-79
2022/08/08 01:51:30;;;;;;;10.63;4.65;;;14.00;90.70;;;;;;5061248;28;20041;-79
2022/08/08 01:54:21;;;;;;;11.75;5.00;;;14.00;91.20;;;;;;5060251;28;20033;-78
2022/08/08 01:57:46;;;;;;;9.65;5.10;;;14.00;90.90;;;;;;5060968;28;20443;-78
2022/08/08 02:01:08;;;;;;;11.13;5.50;;;14.10;90.90;;;;;;5060980;28;20052;-79
2022/08/08 02:04:15;;;;;;;12.52;5.15;;;14.00;90.80;;;;;;5060717;28;20036;-79
2022/08/08 02:07:06;;;;;;;10.38;5.28;;;14.00;90.80;;;;;;5061366;28;20451;-79
2022/08/08 02:10:13;;;;;;;10.95;5.70;;;14.00;90.80;;;;;;5059372;28;20059;-78
2022/08/08 02:13:05;;;;;;;12.45;5.47;;;14.00;90.90;;;;;;5044013;28;20057;-79
2022/08/08 02:15:42;;;;;;;12.95;5.03;;;13.90;91.00;;;;;;5059282;28;20040;-78
2022/08/08 02:18:13;;;;;;;10.55;5.25;;;13.90;91.20;;;;;;5060650;28;20379;-78
2022/08/08 02:24:27;;;;;;;12.52;5.40;;;13.80;91.70;;;;;;5060700;28;20470;-78
2022/08/08 02:27:09;;;;;;;9.90;5.20;;;13.70;91.90;;;;;;5043950;28;20352;-78
2022/08/08 02:29:59;;;;;;;10.75;5.15;;;13.70;91.60;;;;;;5042412;28;20118;-79
2022/08/08 02:33:00;;;;;;;11.25;6.00;;;13.70;92.00;;;;;;5060626;28;20056;-79
2022/08/08 02:35:36;;;;;;;12.15;6.22;;;13.70;92.00;;;;;;5076585;28;20049;-79
2022/08/08 02:38:28;;;;;;;;;;;13.70;91.80;;;;;;5060781;28;20048;-79
2022/08/08 02:41:28;;;;;;;10.90;5.40;;;13.50;92.30;;;;;;5059223;28;19924;-80
2022/08/08 02:44:46;;;;;;;9.57;5.93;;;13.60;91.80;;;;;;5060409;28;20045;-78
2022/08/08 02:47:53;;;;;;;8.98;5.13;;;13.60;91.80;;;;;;5060226;28;20371;-79
2022/08/08 02:50:34;;;;;;;11.20;5.93;;;13.60;91.80;;;;;;5043122;28;20055;-79
2022/08/08 02:53:25;;;;;;;8.75;5.22;;;13.60;92.00;;;;;;5060114;28;20045;-79
2022/08/08 02:56:30;;;;;;;12.38;5.40;;;13.50;91.90;;;;;;5059053;28;20367;-78
2022/08/08 02:59:28;;;;;;;13.43;5.53;;;13.50;92.10;;;;;;4979403;28;20061;-79
2022/08/08 03:02:28;;;;;;;8.63;5.10;;;13.50;92.40;;;;;;5058596;28;20048;-79
2022/08/08 03:05:35;;;;;;;9.43;5.10;;;13.50;92.10;;;;;;5042928;28;20053;-78
2022/08/08 03:08:36;;;;;;;9.35;5.30;;;13.40;92.40;;;;;;5058555;28;20047;-78
2022/08/08 03:11:30;;;;;;;10.55;5.20;;;13.40;92.30;;;;;;5059564;28;20066;-79
2022/08/08 03:14:47;;;;;;;9.05;5.25;;;13.30;92.60;;;;;;5058464;28;20069;-79
2022/08/08 03:17:54;;;;;;;11.43;6.10;;;13.30;93.00;;;;;;5043404;28;20036;-78
2022/08/08 03:20:46;;;;;;;10.55;5.03;;;13.30;92.90;;;;;;5059364;28;20048;-78
2022/08/08 03:23:22;;;;;;;13.88;5.47;;;13.20;92.90;;;;;;5042788;28;20493;-78
2022/08/08 03:25:57;;;;;;;10.50;5.38;;;13.20;93.00;;;;;;5059750;28;20056;-79
2022/08/08 03:28:42;;;;;;;7.80;5.07;;;13.20;93.20;;;;;;5057868;28;20048;-78
2022/08/08 03:34:18;;;;;;;6.50;5.07;;;13.20;93.40;;;;;;5057931;28;20447;-79
2022/08/08 03:36:51;;;;;;;8.30;5.00;;;13.10;93.50;;;;;;5042558;28;20055;-79
2022/08/08 03:39:20;;;;;;;10.40;5.47;;;13.10;93.60;;;;;;5058940;28;20168;-78
2022/08/08 03:41:48;;;;;;;;;;;13.10;93.60;;;;;;5058258;28;20052;-78
2022/08/08 03:44:39;;;;;;;8.30;5.00;;;13.20;94.80;;;;;;5059232;28;19924;-79
2022/08/08 03:47:20;;;;;;;7.22;5.25;;;13.10;93.70;;;;;;5059138;28;20049;-78
2022/08/08 03:49:53;;;;;;;9.27;5.38;;;13.10;93.80;;;;;;5057698;28;20040;-79
2022/08/08 03:52:32;;;;;;;10.30;5.43;;;13.10;94.10;;;;;;5058676;28;20371;-79
2022/08/08 03:55:12;;;;;;;11.15;5.20;;;13.00;94.30;;;;;;5057497;28;20047;-79
2022/08/08 03:58:01;;;;;;;11.30;5.20;;;13.10;94.50;;;;;;5058524;28;20494;-79
2022/08/08 04:00:58;;;;;;;9.85;5.22;;;13.00;94.70;;;;;;5057593;28;20037;-79
2022/08/08 04:03:48;;;;;;;11.43;5.20;;;13.00;94.90;;;;;;5058850;28;20040;-78
2022/08/08 04:06:29;;;;;;;11.00;5.55;;;13.00;94.90;;;;;;5058372;28;20045;-79
2022/08/08 04:09:04;;;;;;;10.30;5.35;;;13.00;95.10;;;;;;5041338;28;20036;-78
2022/08/08 04:11:40;;;;;;;8.77;4.80;;;13.00;95.20;;;;;;5058132;28;20047;-78
2022/08/08 04:14:45;;;;;;;10.57;5.32;;;12.90;95.30;;;;;;5057136;28;20060;-78
2022/08/08 04:17:17;;;;;;;10.93;5.75;;;12.90;95.50;;;;;;5058275;28;20044;-79
2022/08/08 04:20:06;;;;;;;8.20;5.50;;;12.90;95.70;;;;;;5058533;28;20483;-79
2022/08/08 04:22:36;;;;;;;12.77;5.40;;;12.90;95.70;;;;;;5040524;28;20467;-78
2022/08/08 04:25:07;;;;;;;8.65;5.05;;;12.90;95.80;;;;;;5025328;28;20049;-79
2022/08/08 04:27:42;;;;;;;12.70;5.68;;;12.90;95.80;;;;;;5040318;28;20048;-78
2022/08/08 04:30:30;;;;;;;10.77;5.55;;;12.80;96.10;;;;;;5057823;28;20051;-79
2022/08/08 04:33:10;;;;;;;11.35;5.60;;;12.80;96.20;;;;;;5058126;28;20052;-78
2022/08/08 04:35:42;;;;;;;8.15;5.45;;;12.80;96.20;;;;;;5057039;28;20040;-79
2022/08/08 04:38:20;;;;;;;;;;;12.80;96.20;;;;;;5058637;28;20051;-78
2022/08/08 04:40:51;;;;;;;13.10;5.35;;;12.80;97.30;;;;;;5058398;28;19920;-78
2022/08/08 04:43:23;;;;;;;12.10;5.55;;;12.80;96.50;;;;;;5058281;28;20037;-78
2022/08/08 04:46:14;;;;;;;9.82;5.35;;;12.80;96.50;;;;;;5057612;28;20383;-78
2022/08/08 04:48:42;;;;;;;17.33;5.85;;;12.80;96.50;;;;;;5056550;28;20045;-79
2022/08/08 04:51:10;;;;;;;13.20;5.80;;;12.90;96.50;;;;;;5024581;28;20048;-79
2022/08/08 04:53:44;;;;;;;8.70;5.05;;;12.80;96.50;;;;;;5041538;28;20048;-79
2022/08/08 04:56:31;;;;;;;9.07;5.28;;;12.90;96.40;;;;;;5056704;28;20371;-79
2022/08/08 04:59:01;;;;;;;11.75;5.68;;;12.90;96.40;;;;;;5041539;28;20052;-79
2022/08/08 05:01:28;;;;;;;10.68;5.68;;;12.90;96.40;;;;;;5039686;28;20064;-78
2022/08/08 05:04:02;;;;;;;11.48;5.18;;;12.90;96.50;;;;;;5041615;28;20052;-79
2022/08/08 05:06:44;;;;;;;9.07;5.55;;;12.90;96.60;;;;;;5057496;28;20060;-79
2022/08/08 05:09:12;;;;;;;11.43;5.60;;;12.90;96.60;;;;;;5056375;28;20379;-79
2022/08/08 05:11:43;;;;;;;7.57;5.05;;;12.90;96.70;;;;;;5057237;28;20036;-79
2022/08/08 05:14:24;;;;;;;9.85;5.43;;;12.90;96.50;;;;;;5039731;28;20409;-79
2022/08/08 05:17:17;;;;;;;8.90;5.13;;;12.90;96.70;;;;;;5045928;28;20037;-79
2022/08/08 05:19:48;;;;;;;9.13;5.78;;;12.90;96.90;;;;;;5056941;28;20044;-78
2022/08/08 05:22:41;;;;;;;11.18;5.75;;;12.90;97.90;;;;;;5056365;28;20460;-79
2022/08/08 05:25:11;;;;;;;9.55;5.53;;;13.00;97.50;;;;;;5057421;28;20048;-79
2022/08/08 05:27:41;;;;;;;10.15;5.43;;;13.00;96.90;;;;;;5056342;28;20064;-79
2022/08/08 05:30:22;;;;;;;12.15;6.13;;;13.00;97.30;;;;;;5057709;28;20048;-79
2022/08/08 05:32:57;;;;;;;9.20;5.30;;;13.70;96.70;;;;;;5057306;28;20033;-80
2022/08/08 05:35:36;;;;;;;13.30;5.78;;;13.10;96.70;;;;;;5056627;28;20045;-79
2022/08/08 05:38:13;;;;;;;14.82;5.88;;;13.10;96.90;;;;;;5040239;28;20053;-78
2022/08/08 05:41:09;;;;;;;10.90;5.75;;;13.20;96.70;;;;;;5055783;28;20040;-79
2022/08/08 05:43:45;;;;;;;13.00;5.78;;;13.20;96.70;;;;;;5057482;28;20044;-78
2022/08/08 05:46:34;;;;;;;9.07;5.18;;;13.30;97.00;;;;;;5056981;28;20059;-77
2022/08/08 05:49:07;;;;;;;11.85;5.90;;;13.40;96.80;;;;;;5039080;28;20068;-78
2022/08/08 05:51:40;;;;;;;10.85;5.70;;;13.40;96.70;;;;;;5056873;28;20359;-77
2022/08/08 05:54:21;;;;;;;12.27;5.80;;;13.50;97.40;;;;;;5024775;28;20051;-78
2022/08/08 05:57:16;;;;;;;9.70;5.55;;;13.50;97.80;;;;;;5043713;28;20060;-78
2022/08/08 06:00:08;;;;;;;11.88;5.82;;;13.70;96.70;;;;;;5057368;28;20048;-79
2022/08/08 06:03:11;;;;;;;11.90;5.63;;;13.60;96.50;;;;;;5056008;28;20048;-79
2022/08/08 06:06:05;;;;;;;9.40;5.28;;;15.00;96.50;;;;;;5057123;28;20063;-78
2022/08/08 06:08:43;;;;;;;13.13;6.10;;;14.00;96.30;;;;;;5040295;28;20045;-78
2022/08/08 06:11:24;;;;;;;11.38;5.40;;;13.90;96.30;;;;;;5040225;28;20044;-79
2022/08/08 06:13:56;;;;;;;10.07;5.78;;;14.00;96.90;;;;;;5056942;28;20044;-79
2022/08/08 06:16:26;;;;;;;11.85;6.13;;;14.10;97.10;;;;;;5039331;28;20471;-78
2022/08/08 06:19:18;;;;;;;14.18;6.30;;;14.20;96.40;;;;;;5057248;28;20051;-79
2022/08/08 06:21:52;;;;;;;14.20;6.03;;;14.10;97.40;;;;;;5040034;28;20044;-79
2022/08/08 06:24:37;;;;;;;11.18;5.70;;;14.30;96.10;;;;;;5056631;28;20464;-79
2022/08/08 06:27:16;;;;;;;13.00;6.50;;;14.40;96.50;;;;;;5056787;28;20059;-78
2022/08/08 06:30:04;;;;;;;17.00;6.82;;;14.30;96.00;;;;;;5055418;28;20052;-79
2022/08/08 06:32:53;;;;;;;12.77;7.15;;;14.40;95.90;;;;;;5057435;28;20040;-79
2022/08/08 06:35:29;;;;;;;16.10;7.35;;;14.50;96.10;;;;;;5042340;28;20049;-78
2022/08/08 06:38:25;;;;;;;13.15;7.20;;;14.90;96.80;;;;;;5060293;28;20041;-78
2022/08/08 06:41:07;;;;;;;16.20;7.53;;;15.10;95.80;;;;;;5058286;28;20044;-78
2022/08/08 06:43:43;;;;;;;15.88;7.03;;;14.90;95.70;;;;;;5059677;28;20051;-75
2022/08/08 06:46:27;;;;;;;12.90;6.68;;;15.10;96.10;;;;;;5043057;28;20063;-76
2022/08/08 06:48:59;;;;;;;18.25;7.72;;;15.10;95.60;;;;;;5058591;28;20383;-77
2022/08/08 06:51:27;;;;;;;16.23;7.80;;;15.30;95.50;;;;;;5059497;28;20049;-76
2022/08/08 06:54:21;;;;;;;20.08;7.88;;;15.30;95.50;;;;;;5057514;28;20056;-78
2022/08/08 06:56:55;;;;;;;16.88;7.47;;;15.50;95.30;;;;;;5043155;28;20055;-79
2022/08/08 06:59:27;;;;;;;18.83;8.15;;;15.00;95.80;;;;;;5060079;28;20037;-80
2022/08/08 07:02:26;;;;;;;15.57;7.45;;;15.90;96.20;;;;;;5058408;28;20052;-80
2022/08/08 07:05:08;;;;;;;15.18;7.60;;;15.80;95.30;;;;;;5059345;28;20041;-79
2022/08/08 07:08:02;;;;;;;17.63;7.55;;;15.90;95.10;;;;;;5042426;28;20041;-80
2022/08/08 07:10:37;;;;;;;15.63;7.28;;;16.20;94.80;;;;;;5059120;28;20040;-80
2022/08/08 07:13:31;;;;;;;17.80;7.60;;;16.50;94.80;;;;;;5043754;28;20048;-80
2022/08/08 07:16:04;;;;;;;14.55;7.25;;;16.30;95.00;;;;;;5057178;28;20056;-78
2022/08/08 07:19:05;;;;;;;20.58;8.15;;;16.40;94.20;;;;;;5059163;28;20040;-82
2022/08/08 07:21:54;;;;;;;20.75;8.98;;;16.50;94.20;;;;;;5041283;28;20068;-76
2022/08/08 07:24:43;;;;;;;20.35;10.27;;;16.60;94.30;;;;;;5056471;28;20056;-74
2022/08/08 07:27:15;;;;;;;17.77;8.15;;;16.80;94.10;;;;;;5054980;28;20522;-75
2022/08/08 07:29:46;;;;;;;20.55;8.10;;;16.90;93.90;;;;;;5056516;28;20043;-75
2022/08/08 07:32:38;;;;;;;12.10;7.15;;;17.00;93.90;;;;;;5059282;28;20044;-75
2022/08/08 07:35:09;;;;;;;17.23;6.95;;;17.00;93.70;;;;;;5042393;28;20052;-75
2022/08/08 07:37:45;;;;;;;15.88;6.30;;;17.10;93.60;;;;;;5043004;28;20044;-75
2022/08/08 07:40:42;;;;;;;14.77;6.53;;;17.20;93.60;;;;;;5059621;28;20052;-75
2022/08/08 07:43:13;;;;;;;17.20;6.20;;;17.30;93.30;;;;;;5042042;28;20049;-75
2022/08/08 07:45:45;;;;;;;19.83;6.20;;;17.40;93.20;;;;;;5059370;28;20052;-75
2022/08/08 07:48:34;;;;;;;21.08;6.07;;;17.50;93.00;;;;;;5057917;28;20048;-76
2022/08/08 07:51:03;;;;;;;18.40;6.55;;;17.60;92.80;;;;;;5059410;28;20447;-75
2022/08/08 07:53:48;;;;;;;16.05;6.57;;;17.70;92.50;;;;;;5059007;28;20036;-75
2022/08/08 07:56:58;;;;;;;12.90;5.68;;;17.90;92.30;;;;;;5057684;28;20040;-78
2022/08/08 07:59:35;;;;;;;12.80;5.03;;;17.90;92.10;;;;;;5042582;28;20067;-76
2022/08/08 08:02:07;;;;;;;17.30;5.60;;;18.00;92.10;;;;;;5058049;28;20042;-79
2022/08/08 08:05:03;;;;;;;17.73;5.88;;;18.00;92.00;;;;;;5058314;28;20048;-78
2022/08/08 08:07:44;;;;;;;13.90;5.38;;;18.20;92.20;;;;;;5057836;28;20048;-70
2022/08/08 08:10:28;;;;;;;11.55;5.22;;;18.20;91.80;;;;;;5059016;28;20044;-76
2022/08/08 08:13:23;;;;;;;11.80;5.13;;;18.30;91.60;;;;;;5041600;28;20060;-75
2022/08/08 08:16:20;;;;;;;13.32;5.07;;;18.40;91.30;;;;;;5057511;28;20048;-73
2022/08/08 08:18:57;;;;;;;17.42;5.25;;;18.50;91.10;;;;;;5042552;28;20048;-74
2022/08/08 08:21:43;;;;;;;13.07;4.70;;;18.50;90.90;;;;;;5057399;28;20055;-73
2022/08/08 08:24:40;;;;;;;12.23;5.00;;;18.60;90.70;;;;;;5058819;28;20044;-74
2022/08/08 08:27:11;;;;;;;14.35;4.75;;;18.70;90.60;;;;;;5058125;28;20040;-73
2022/08/08 08:29:42;;;;;;;17.02;4.97;;;18.70;90.70;;;;;;5057174;28;20455;-74
2022/08/08 08:32:18;;;;;;;12.13;4.75;;;18.80;90.50;;;;;;5058068;28;20055;-75
2022/08/08 08:35:04;;;;;;;11.15;4.57;;;18.90;90.30;;;;;;5057051;28;20041;-73
2022/08/08 08:37:34;;;;;;;13.00;4.32;;;19.00;90.00;;;;;;5058574;28;20044;-73
2022/08/08 08:40:23;;;;;;;16.13;4.35;;;19.10;90.10;;;;;;5058026;28;20471;-74
2022/08/08 08:42:54;;;;;;;12.85;3.83;;;19.10;89.60;;;;;;5057119;28;20051;-74
2022/08/08 08:45:23;;;;;;;12.63;4.60;;;19.20;89.30;;;;;;5041773;28;20044;-72
2022/08/08 08:47:59;;;;;;;12.40;4.20;;;19.40;89.20;;;;;;5040424;28;20044;-74
2022/08/08 08:50:33;;;;;;;15.07;4.47;;;19.50;88.70;;;;;;5057520;28;20041;-73
2022/08/08 08:53:11;;;;;;;13.68;4.10;;;19.70;88.50;;;;;;5041216;28;20462;-73
2022/08/08 08:56:07;;;;;;;9.20;3.22;;;19.80;87.50;;;;;;5056016;28;20044;-76
2022/08/08 08:58:42;;;;;;;10.65;3.60;;;19.90;87.30;;;;;;5057739;28;20051;-76
2022/08/08 09:01:26;;;;;;;12.30;3.80;;;20.00;86.10;;;;;;5056660;28;20067;-74
2022/08/08 09:03:59;;;;;;;9.45;3.20;;;20.10;85.30;;;;;;5057807;28;20044;-76
2022/08/08 09:06:40;;;;;;;10.73;3.60;;;20.30;85.10;;;;;;5038222;28;20045;-73
2022/08/08 09:09:25;;;;;;;9.95;3.50;;;20.40;84.50;;;;;;5036552;28;20045;-75
2022/08/08 09:12:19;;;;;;;13.40;3.72;;;20.50;84.00;;;;;;5037644;28;20037;-73
2022/08/08 09:14:57;;;;;;;9.40;2.92;;;20.60;83.70;;;;;;5036862;28;20045;-74
2022/08/08 09:17:33;;;;;;;11.55;3.05;;;20.70;83.30;;;;;;5037507;28;20053;-74
2022/08/08 09:20:19;;;;;;;10.48;3.00;;;20.80;83.10;;;;;;5038000;28;20048;-75
2022/08/08 09:23:08;;;;;;;11.35;2.78;;;20.90;82.30;;;;;;5053975;28;20033;-74
2022/08/08 09:25:45;;;;;;;11.13;2.80;;;21.00;82.10;;;;;;5037408;28;20045;-76
2022/08/08 09:28:36;;;;;;;12.02;2.78;;;21.10;80.90;;;;;;5020307;28;20052;-75
2022/08/08 09:31:40;;;;;;;8.68;2.65;;;21.20;80.80;;;;;;5037160;28;20045;-75
2022/08/08 09:34:31;;;;;;;10.35;2.50;;;21.30;79.20;;;;;;5030982;28;20061;-74
2022/08/08 09:37:07;;;;;;;9.18;2.60;;;21.30;79.50;;;;;;5037792;28;20048;-74
2022/08/08 09:40:04;;;;;;;14.75;2.40;;;21.40;79.20;;;;;;5037276;28;20052;-73
2022/08/08 09:42:48;;;;;;;9.55;2.50;;;21.60;77.70;;;;;;5037249;28;20049;-74
2022/08/08 09:45:25;;;;;;;12.40;2.50;;;21.60;77.40;;;;;;5054847;28;20056;-73
2022/08/08 09:48:16;;;;;;;10.75;2.33;;;21.70;77.30;;;;;;5039377;28;20475;-73
2022/08/08 09:51:02;;;;;;;9.88;2.30;;;21.90;76.00;;;;;;5054372;28;20474;-74
2022/08/08 09:53:45;;;;;;;7.22;2.17;;;22.00;75.80;;;;;;5037588;28;20052;-73
2022/08/08 09:56:36;;;;;;;10.80;2.45;;;22.10;75.40;;;;;;5053550;28;20475;-74
2022/08/08 09:59:17;;;;;;;8.13;2.38;;;22.20;75.30;;;;;;5054431;28;20479;-75
2022/08/08 10:02:10;;;;;;;14.07;2.40;;;22.20;74.80;;;;;;5070101;28;20048;-74
2022/08/08 10:04:42;;;;;;;10.13;2.45;;;22.30;74.80;;;;;;5057283;28;20044;-74
2022/08/08 10:07:15;;;;;;;8.65;2.20;;;23.10;74.70;;;;;;5076788;28;20040;-73
2022/08/08 10:09:50;;;;;;;8.98;2.17;;;22.50;74.40;;;;;;5077672;28;20355;-74
2022/08/08 10:12:37;;;;;;;7.32;1.90;;;22.50;72.80;;;;;;5060943;28;20044;-76
2022/08/08 10:15:26;;;;;;;6.97;1.98;;;22.60;71.90;;;;;;5077228;28;20052;-78
2022/08/08 10:17:55;;;;;;;7.82;1.83;;;22.80;72.00;;;;;;5078386;28;20371;-76
2022/08/08 10:20:46;;;;;;;10.68;2.20;;;22.70;71.80;;;;;;5078521;28;20051;-80
2022/08/08 10:23:48;;;;;;;5.82;1.70;;;22.70;70.70;;;;;;5062711;28;20044;-77
2022/08/08 10:26:30;;;;;;;10.90;1.90;;;22.80;68.80;;;;;;5045681;28;20055;-76
2022/08/08 10:29:58;;;;;;;7.07;2.00;;;22.90;70.00;;;;;;5077126;28;20044;-82
2022/08/08 10:32:31;;;;;;;6.15;1.80;;;23.00;69.40;;;;;;5043773;28;20048;-79
2022/08/08 10:35:13;;;;;;;9.07;2.10;;;23.10;70.50;;;;;;5059798;28;20052;-76
2022/08/08 10:38:14;;;;;;;8.88;2.17;;;23.20;69.70;;;;;;5078007;28;20047;-84
2022/08/08 10:41:05;;;;;;;8.50;2.13;;;23.00;68.90;;;;;;5063292;28;20055;-77
2022/08/08 10:43:38;;;;;;;8.95;2.05;;;23.30;70.30;;;;;;5078175;28;20044;-74
2022/08/08 10:46:25;;;;;;;5.45;1.83;;;23.40;69.00;;;;;;5061198;28;20048;-75
2022/08/08 10:48:57;;;;;;;9.57;2.00;;;23.40;69.00;;;;;;5058998;28;20044;-74
2022/08/08 10:51:29;;;;;;;7.43;1.80;;;23.50;69.00;;;;;;5077154;28;20051;-74
2022/08/08 10:54:21;;;;;;;4.95;1.80;;;23.60;68.40;;;;;;5060499;28;20064;-75
2022/08/08 10:56:56;;;;;;;11.73;1.90;;;23.70;67.90;;;;;;5076990;28;20059;-76
2022/08/08 10:59:26;;;;;;;6.80;1.73;;;23.80;67.80;;;;;;5077569;28;20045;-76
2022/08/08 11:01:58;;;;;;;6.45;1.85;;;23.90;67.70;;;;;;5076289;28;20060;-74
2022/08/08 11:04:26;;;;;;;6.82;1.98;;;23.90;68.60;;;;;;5077550;28;20488;-74
2022/08/08 11:06:59;;;;;;;11.20;2.03;;;24.00;68.20;;;;;;5077807;28;20064;-75
2022/08/08 11:09:29;;;;;;;10.57;2.42;;;24.10;68.50;;;;;;5076367;28;20467;-74
2022/08/08 11:12:01;;;;;;;10.57;2.30;;;24.30;68.70;;;;;;5059422;28;20048;-73
2022/08/08 11:14:58;;;;;;;7.07;1.92;;;24.40;67.50;;;;;;5076460;28;20051;-73
2022/08/08 11:17:30;;;;;;;8.10;2.08;;;24.60;66.90;;;;;;5060082;28;20048;-73
2022/08/08 11:20:27;;;;;;;12.00;2.40;;;24.70;67.20;;;;;;5076744;28;20052;-75
2022/08/08 11:23:00;;;;;;;7.13;2.30;;;24.80;67.10;;;;;;5058347;28;20391;-73
2022/08/08 11:25:33;;;;;;;9.80;2.72;;;24.90;66.90;;;;;;5077262;28;20048;-73
2022/08/08 11:28:22;;;;;;;;;;;25.00;67.10;;;;;;5058972;28;20044;-74
2022/08/08 11:31:00;;;;;;;5.55;1.63;;;25.20;66.40;;;;;;5077304;28;19927;-74
2022/08/08 11:33:33;;;;;;;7.28;2.10;;;25.20;66.90;;;;;;5044679;28;20051;-73
2022/08/08 11:36:22;;;;;;;10.23;1.75;;;25.10;66.50;;;;;;5075961;28;20033;-76
2022/08/08 11:38:55;;;;;;;4.30;1.77;;;25.00;66.50;;;;;;5059039;28;20414;-80
2022/08/08 11:41:35;;;;;;;6.20;1.70;;;25.10;67.10;;;;;;5024784;28;20044;-80
2022/08/08 11:44:13;;;;;;;5.05;1.60;;;25.30;67.20;;;;;;5059688;28;20036;-77
2022/08/08 11:46:42;;;;;;;6.50;1.60;;;25.40;66.70;;;;;;5076844;28;20041;-75
2022/08/08 11:49:11;;;;;;;4.15;1.40;;;25.60;66.30;;;;;;5075428;28;20041;-78
2022/08/08 11:51:43;;;;;;;6.88;1.75;;;25.60;66.20;;;;;;5075657;28;20056;-74
2022/08/08 11:54:42;;;;;;;3.55;1.40;;;25.50;65.70;;;;;;5075380;28;20052;-75
2022/08/08 11:57:24;;;;;;;4.55;1.50;;;25.40;65.20;;;;;;5076024;28;20040;-75
2022/08/08 12:00:06;;;;;;;7.93;1.60;;;25.40;65.70;;;;;;5076092;28;20044;-78
2022/08/08 12:02:49;;;;;;;4.90;1.70;;;25.50;66.20;;;;;;5074528;28;20049;-75
2022/08/08 12:05:29;;;;;;;3.80;1.30;;;25.60;65.90;;;;;;5075834;28;20059;-74
2022/08/08 12:08:00;;;;;;;4.45;1.40;;;25.70;65.70;;;;;;5074655;28;20474;-75
2022/08/08 12:10:29;;;;;;;4.93;1.10;;;25.90;65.60;;;;;;5074987;28;20059;-77
2022/08/08 12:13:12;;;;;;;6.72;1.20;;;26.20;64.70;;;;;;5057589;28;20052;-76
2022/08/08 12:15:50;;;;;;;9.35;1.40;;;26.30;63.90;;;;;;5040254;28;20048;-75
2022/08/08 12:18:26;;;;;;;3.95;1.20;;;26.30;64.10;;;;;;5075163;28;20459;-76
2022/08/08 12:20:56;;;;;;;5.00;1.15;;;26.20;63.90;;;;;;5041622;28;20052;-77
2022/08/08 12:23:34;;;;;;;5.93;1.05;;;26.20;64.50;;;;;;5075297;28;20055;-76
2022/08/08 12:26:20;;;;;;;2.60;1.10;;;26.20;63.90;;;;;;5057924;28;20597;-74
2022/08/08 12:29:18;;;;;;;4.57;1.10;;;26.30;63.60;;;;;;5056641;28;20075;-75
2022/08/08 12:32:15;;;;;;;3.95;1.20;;;26.30;62.90;;;;;;5074050;28;20044;-77
2022/08/08 12:34:57;;;;;;;3.95;1.40;;;26.30;63.30;;;;;;5074031;28;20494;-73
2022/08/08 12:37:47;;;;;;;5.18;1.10;;;26.30;63.70;;;;;;5075085;28;20048;-76
2022/08/08 12:40:45;;;;;;;7.47;1.27;;;26.10;63.60;;;;;;5075041;28;20131;-73
2022/08/08 12:43:32;;;;;;;4.57;1.10;;;26.00;63.20;;;;;;5042707;28;20071;-82
2022/08/08 12:46:24;;;;;;;7.13;1.20;;;25.90;63.60;;;;;;5060742;28;20367;-77
2022/08/08 12:48:58;;;;;;;4.30;0.98;;;26.00;64.00;;;;;;5073831;28;20063;-74
2022/08/08 12:51:49;;;;;;;5.60;1.30;;;26.10;63.60;;;;;;5074651;28;20045;-74
2022/08/08 12:54:37;;;;;;;5.07;1.10;;;26.30;63.40;;;;;;5073632;28;20052;-76
2022/08/08 12:57:19;;;;;;;4.10;1.10;;;26.50;63.00;;;;;;5074794;28;20055;-74
2022/08/08 12:59:50;;;;;;;3.83;1.20;;;26.80;62.50;;;;;;5074661;28;20041;-76
2022/08/08 13:06:55;;;;;;;3.83;1.08;;;26.90;61.40;;;;;;5025910;28;20408;-81
2022/08/08 13:14:14;;;;;;;3.40;1.00;;;26.70;62.00;;;;;;5066299;28;20072;-77
2022/08/08 13:16:42;;;;;;;6.43;1.15;;;26.80;61.90;;;;;;5073010;28;20063;-75
2022/08/08 13:19:16;;;;;;;4.97;1.10;;;26.90;62.10;;;;;;5074528;28;20051;-75
2022/08/08 13:21:46;;;;;;;8.30;1.10;;;27.00;61.60;;;;;;5056168;28;20053;-81
2022/08/08 13:24:21;;;;;;;3.38;1.00;;;27.20;61.20;;;;;;5058200;28;20051;-76
2022/08/08 13:27:13;;;;;;;3.95;1.20;;;27.30;61.00;;;;;;5074343;28;20041;-79
2022/08/08 13:29:59;;;;;;;5.60;1.20;;;27.40;60.90;;;;;;5073037;28;20041;-76
2022/08/08 13:32:34;;;;;;;6.68;1.40;;;27.50;60.60;;;;;;5074190;28;20067;-76
2022/08/08 13:35:06;;;;;;;3.80;1.25;;;27.40;61.50;;;;;;5039359;28;20495;-76
2022/08/08 13:37:59;;;;;;;5.00;1.20;;;27.30;61.30;;;;;;5074316;28;20047;-77
2022/08/08 13:40:34;;;;;;;4.15;1.40;;;27.10;60.70;;;;;;5056523;28;20063;-77
2022/08/08 13:43:08;;;;;;;3.63;1.48;;;27.10;61.20;;;;;;5059475;28;20051;-78
2022/08/08 13:45:35;;;;;;;;;;;27.20;60.80;;;;;;5044008;28;20048;-78
2022/08/08 13:48:12;;;;;;;5.43;1.50;;;27.60;60.00;;;;;;5077409;28;19931;-76
2022/08/08 13:50:48;;;;;;;7.03;2.00;;;28.20;60.10;;;;;;5060358;28;20059;-72
2022/08/08 13:53:27;;;;;;;4.93;2.30;;;28.60;60.00;;;;;;5078293;28;20570;-72
2022/08/08 13:56:04;;;;;;;12.10;2.30;;;28.70;59.60;;;;;;5077545;28;20463;-71
2022/08/08 13:58:33;;;;;;;5.68;2.47;;;28.60;59.60;;;;;;5078337;28;20037;-71
2022/08/08 14:01:17;;;;;;;8.65;2.30;;;28.40;59.70;;;;;;5077012;28;20044;-72
2022/08/08 14:03:56;;;;;;;5.13;2.53;;;28.40;58.70;;;;;;5078569;28;20045;-73
2022/08/08 14:06:25;;;;;;;6.53;2.45;;;29.00;58.40;;;;;;5078141;28;20048;-72
2022/08/08 14:09:00;;;;;;;8.40;2.47;;;30.10;57.80;;;;;;5076694;28;20048;-73
2022/08/08 14:11:48;;;;;;;9.80;2.28;;;31.30;57.00;;;;;;5078433;28;20040;-72
2022/08/08 14:14:16;;;;;;;7.25;2.03;;;32.60;56.00;;;;;;5077790;28;20055;-71
2022/08/08 14:16:49;;;;;;;9.70;2.58;;;33.50;54.50;;;;;;5058855;28;20467;-72
2022/08/08 14:19:16;;;;;;;7.10;2.20;;;33.60;53.30;;;;;;5058084;28;20052;-73
2022/08/08 14:22:19;;;;;;;7.72;2.25;;;33.80;53.20;;;;;;5056528;28;20032;-73
2022/08/08 14:24:53;;;;;;;11.43;2.13;;;34.40;51.40;;;;;;5039862;28;20055;-72
2022/08/08 14:27:26;;;;;;;8.45;2.38;;;35.00;51.20;;;;;;5058178;28;20052;-74